sensor_id;sensor_type;location;lat;lon;timestamp;P1;durP1;ratioP1;P2;durP2;ratioP2
29168;SDS011;16219;42.864;23.360;2022-12-07T00:00:21;18.45;;;10.85;;
29168;SDS011;16219;42.864;23.360;2022-12-07T00:02:48;12.30;;;9.82;;
29168;SDS011;16219;42.864;23.360;2022-12-07T00:05:16;17.60;;;9.90;;
29168;SDS011;16219;42.864;23.360;2022-12-07T00:07:43;18.40;;;12.75;;
29168;SDS011;16219;42.864;23.360;2022-12-07T00:10:10;17.10;;;10.23;;
29168;SDS011;16219;42.864;23.360;2022-12-07T00:12:38;21.27;;;12.70;;
29168;SDS011;16219;42.864;23.360;2022-12-07T00:15:06;15.88;;;11.77;;
29168;SDS011;16219;42.864;23.360;2022-12-07T00:17:33;22.25;;;12.32;;
29168;SDS011;16219;42.864;23.360;2022-12-07T00:20:00;25.73;;;15.40;;
29168;SDS011;16219;42.864;23.360;2022-12-07T00:22:28;28.25;;;14.52;;
29168;SDS011;16219;42.864;23.360;2022-12-07T00:24:55;24.52;;;13.77;;
29168;SDS011;16219;42.864;23.360;2022-12-07T00:27:22;21.02;;;12.52;;
29168;SDS011;16219;42.864;23.360;2022-12-07T00:29:51;33.38;;;13.77;;
29168;SDS011;16219;42.864;23.360;2022-12-07T00:32:18;19.20;;;10.90;;
29168;SDS011;16219;42.864;23.360;2022-12-07T00:34:45;14.75;;;10.60;;
29168;SDS011;16219;42.864;23.360;2022-12-07T00:37:12;22.95;;;9.35;;
29168;SDS011;16219;42.864;23.360;2022-12-07T00:39:39;15.73;;;9.43;;
29168;SDS011;16219;42.864;23.360;2022-12-07T00:42:07;12.52;;;8.52;;
29168;SDS011;16219;42.864;23.360;2022-12-07T00:44:34;21.85;;;8.20;;
29168;SDS011;16219;42.864;23.360;2022-12-07T00:47:02;14.95;;;7.80;;
29168;SDS011;16219;42.864;23.360;2022-12-07T00:49:30;14.30;;;8.57;;
29168;SDS011;16219;42.864;23.360;2022-12-07T00:51:57;16.08;;;7.32;;
29168;SDS011;16219;42.864;23.360;2022-12-07T00:54:24;16.50;;;6.82;;
29168;SDS011;16219;42.864;23.360;2022-12-07T00:56:51;20.70;;;9.23;;
29168;SDS011;16219;42.864;23.360;2022-12-07T00:59:18;14.35;;;8.25;;
29168;SDS011;16219;42.864;23.360;2022-12-07T01:01:45;19.23;;;9.00;;
29168;SDS011;16219;42.864;23.360;2022-12-07T01:04:13;12.43;;;7.80;;
29168;SDS011;16219;42.864;23.360;2022-12-07T01:06:40;10.48;;;8.00;;
29168;SDS011;16219;42.864;23.360;2022-12-07T01:09:07;12.43;;;9.00;;
29168;SDS011;16219;42.864;23.360;2022-12-07T01:11:35;21.45;;;9.82;;
29168;SDS011;16219;42.864;23.360;2022-12-07T01:14:02;19.30;;;9.80;;
29168;SDS011;16219;42.864;23.360;2022-12-07T01:16:30;10.07;;;9.02;;
29168;SDS011;16219;42.864;23.360;2022-12-07T01:18:58;13.25;;;9.10;;
29168;SDS011;16219;42.864;23.360;2022-12-07T01:21:28;24.15;;;10.38;;
29168;SDS011;16219;42.864;23.360;2022-12-07T01:23:59;13.48;;;9.43;;
29168;SDS011;16219;42.864;23.360;2022-12-07T01:26:27;24.67;;;9.85;;
29168;SDS011;16219;42.864;23.360;2022-12-07T01:28:54;17.23;;;9.07;;
29168;SDS011;16219;42.864;23.360;2022-12-07T01:31:23;12.75;;;8.63;;
29168;SDS011;16219;42.864;23.360;2022-12-07T01:33:51;17.15;;;9.70;;
29168;SDS011;16219;42.864;23.360;2022-12-07T01:36:20;9.07;;;7.65;;
29168;SDS011;16219;42.864;23.360;2022-12-07T01:38:50;17.33;;;10.27;;
29168;SDS011;16219;42.864;23.360;2022-12-07T01:41:22;22.10;;;10.45;;
29168;SDS011;16219;42.864;23.360;2022-12-07T01:46:38;10.40;;;8.63;;
29168;SDS011;16219;42.864;23.360;2022-12-07T01:49:07;12.82;;;7.68;;
29168;SDS011;16219;42.864;23.360;2022-12-07T01:51:36;11.68;;;7.75;;
29168;SDS011;16219;42.864;23.360;2022-12-07T01:54:08;22.60;;;9.15;;
29168;SDS011;16219;42.864;23.360;2022-12-07T01:56:38;17.98;;;8.70;;
29168;SDS011;16219;42.864;23.360;2022-12-07T01:59:06;9.85;;;7.82;;
29168;SDS011;16219;42.864;23.360;2022-12-07T02:01:34;15.15;;;9.27;;
29168;SDS011;16219;42.864;23.360;2022-12-07T02:04:01;11.32;;;8.68;;
29168;SDS011;16219;42.864;23.360;2022-12-07T02:06:29;18.20;;;7.70;;
29168;SDS011;16219;42.864;23.360;2022-12-07T02:08:56;9.35;;;7.10;;
29168;SDS011;16219;42.864;23.360;2022-12-07T02:11:25;15.40;;;7.65;;
29168;SDS011;16219;42.864;23.360;2022-12-07T02:13:52;13.25;;;7.55;;
29168;SDS011;16219;42.864;23.360;2022-12-07T02:16:23;10.00;;;6.38;;
29168;SDS011;16219;42.864;23.360;2022-12-07T02:18:58;14.25;;;6.90;;
29168;SDS011;16219;42.864;23.360;2022-12-07T02:21:39;19.67;;;7.15;;
29168;SDS011;16219;42.864;23.360;2022-12-07T02:27:00;11.55;;;7.13;;
29168;SDS011;16219;42.864;23.360;2022-12-07T02:29:40;16.40;;;8.68;;
29168;SDS011;16219;42.864;23.360;2022-12-07T02:32:15;17.00;;;9.13;;
29168;SDS011;16219;42.864;23.360;2022-12-07T02:34:47;17.50;;;7.95;;
29168;SDS011;16219;42.864;23.360;2022-12-07T02:37:23;16.25;;;9.02;;
29168;SDS011;16219;42.864;23.360;2022-12-07T02:40:01;12.53;;;7.60;;
29168;SDS011;16219;42.864;23.360;2022-12-07T02:42:35;9.45;;;7.60;;
29168;SDS011;16219;42.864;23.360;2022-12-07T02:45:08;9.52;;;7.07;;
29168;SDS011;16219;42.864;23.360;2022-12-07T02:47:38;10.95;;;7.00;;
29168;SDS011;16219;42.864;23.360;2022-12-07T02:50:08;10.88;;;6.95;;
29168;SDS011;16219;42.864;23.360;2022-12-07T02:52:35;22.80;;;7.40;;
29168;SDS011;16219;42.864;23.360;2022-12-07T02:55:03;11.98;;;7.57;;
29168;SDS011;16219;42.864;23.360;2022-12-07T02:57:35;9.40;;;6.90;;
29168;SDS011;16219;42.864;23.360;2022-12-07T03:00:17;10.25;;;7.45;;
29168;SDS011;16219;42.864;23.360;2022-12-07T03:02:48;14.32;;;9.00;;
29168;SDS011;16219;42.864;23.360;2022-12-07T03:05:35;10.27;;;6.90;;
29168;SDS011;16219;42.864;23.360;2022-12-07T03:08:18;10.07;;;7.88;;
29168;SDS011;16219;42.864;23.360;2022-12-07T03:10:52;8.43;;;7.43;;
29168;SDS011;16219;42.864;23.360;2022-12-07T03:13:24;21.25;;;8.15;;
29168;SDS011;16219;42.864;23.360;2022-12-07T03:15:58;7.13;;;6.28;;
29168;SDS011;16219;42.864;23.360;2022-12-07T03:18:30;14.47;;;9.03;;
29168;SDS011;16219;42.864;23.360;2022-12-07T03:21:01;11.75;;;7.57;;
29168;SDS011;16219;42.864;23.360;2022-12-07T03:23:32;9.13;;;7.05;;
29168;SDS011;16219;42.864;23.360;2022-12-07T03:26:02;12.52;;;7.28;;
29168;SDS011;16219;42.864;23.360;2022-12-07T03:28:32;11.32;;;7.80;;
29168;SDS011;16219;42.864;23.360;2022-12-07T03:31:05;13.82;;;8.52;;
29168;SDS011;16219;42.864;23.360;2022-12-07T03:33:39;8.27;;;6.03;;
29168;SDS011;16219;42.864;23.360;2022-12-07T03:36:12;22.15;;;8.30;;
29168;SDS011;16219;42.864;23.360;2022-12-07T03:38:44;14.88;;;9.65;;
29168;SDS011;16219;42.864;23.360;2022-12-07T03:41:16;11.40;;;7.07;;
29168;SDS011;16219;42.864;23.360;2022-12-07T03:43:46;11.85;;;7.68;;
29168;SDS011;16219;42.864;23.360;2022-12-07T03:46:17;12.48;;;8.95;;
29168;SDS011;16219;42.864;23.360;2022-12-07T03:48:52;17.92;;;9.73;;
29168;SDS011;16219;42.864;23.360;2022-12-07T03:51:25;13.55;;;8.85;;
29168;SDS011;16219;42.864;23.360;2022-12-07T03:54:00;38.72;;;11.93;;
29168;SDS011;16219;42.864;23.360;2022-12-07T03:56:32;18.15;;;9.48;;
29168;SDS011;16219;42.864;23.360;2022-12-07T03:59:01;14.65;;;9.25;;
29168;SDS011;16219;42.864;23.360;2022-12-07T04:01:29;12.63;;;9.10;;
29168;SDS011;16219;42.864;23.360;2022-12-07T04:03:58;17.52;;;8.27;;
29168;SDS011;16219;42.864;23.360;2022-12-07T04:06:25;14.13;;;8.45;;
29168;SDS011;16219;42.864;23.360;2022-12-07T04:08:52;15.93;;;7.43;;
29168;SDS011;16219;42.864;23.360;2022-12-07T04:11:21;14.48;;;9.77;;
29168;SDS011;16219;42.864;23.360;2022-12-07T04:13:48;11.27;;;8.57;;
29168;SDS011;16219;42.864;23.360;2022-12-07T04:19:00;9.48;;;7.22;;
29168;SDS011;16219;42.864;23.360;2022-12-07T04:21:27;15.32;;;8.70;;
29168;SDS011;16219;42.864;23.360;2022-12-07T04:23:54;11.70;;;8.32;;
29168;SDS011;16219;42.864;23.360;2022-12-07T04:26:21;21.20;;;9.43;;
29168;SDS011;16219;42.864;23.360;2022-12-07T04:28:48;15.18;;;9.13;;
29168;SDS011;16219;42.864;23.360;2022-12-07T04:31:15;16.42;;;11.05;;
29168;SDS011;16219;42.864;23.360;2022-12-07T04:33:45;13.77;;;8.85;;
29168;SDS011;16219;42.864;23.360;2022-12-07T04:36:12;20.98;;;10.73;;
29168;SDS011;16219;42.864;23.360;2022-12-07T04:38:39;24.70;;;9.98;;
29168;SDS011;16219;42.864;23.360;2022-12-07T04:41:06;28.55;;;9.32;;
29168;SDS011;16219;42.864;23.360;2022-12-07T04:43:34;22.40;;;9.73;;
29168;SDS011;16219;42.864;23.360;2022-12-07T04:46:02;25.50;;;10.93;;
29168;SDS011;16219;42.864;23.360;2022-12-07T04:48:29;28.75;;;11.27;;
29168;SDS011;16219;42.864;23.360;2022-12-07T04:50:58;15.52;;;8.18;;
29168;SDS011;16219;42.864;23.360;2022-12-07T04:53:25;16.35;;;8.65;;
29168;SDS011;16219;42.864;23.360;2022-12-07T04:55:52;16.50;;;7.85;;
29168;SDS011;16219;42.864;23.360;2022-12-07T04:58:19;12.70;;;8.57;;
29168;SDS011;16219;42.864;23.360;2022-12-07T05:00:46;12.13;;;7.72;;
29168;SDS011;16219;42.864;23.360;2022-12-07T05:03:13;14.35;;;8.15;;
29168;SDS011;16219;42.864;23.360;2022-12-07T05:05:40;13.73;;;8.48;;
29168;SDS011;16219;42.864;23.360;2022-12-07T05:08:09;14.18;;;6.78;;
29168;SDS011;16219;42.864;23.360;2022-12-07T05:10:36;26.38;;;8.90;;
29168;SDS011;16219;42.864;23.360;2022-12-07T05:13:03;22.92;;;8.02;;
29168;SDS011;16219;42.864;23.360;2022-12-07T05:15:30;17.77;;;8.93;;
29168;SDS011;16219;42.864;23.360;2022-12-07T05:17:57;14.02;;;8.43;;
29168;SDS011;16219;42.864;23.360;2022-12-07T05:20:24;11.80;;;6.68;;
29168;SDS011;16219;42.864;23.360;2022-12-07T05:22:51;13.18;;;8.38;;
29168;SDS011;16219;42.864;23.360;2022-12-07T05:25:19;16.38;;;9.07;;
29168;SDS011;16219;42.864;23.360;2022-12-07T05:27:47;13.75;;;7.43;;
29168;SDS011;16219;42.864;23.360;2022-12-07T05:30:14;13.20;;;7.38;;
29168;SDS011;16219;42.864;23.360;2022-12-07T05:32:41;11.15;;;9.38;;
29168;SDS011;16219;42.864;23.360;2022-12-07T05:35:08;21.65;;;9.43;;
29168;SDS011;16219;42.864;23.360;2022-12-07T05:37:36;11.52;;;7.47;;
29168;SDS011;16219;42.864;23.360;2022-12-07T05:40:03;18.42;;;9.02;;
29168;SDS011;16219;42.864;23.360;2022-12-07T05:42:33;7.35;;;6.65;;
29168;SDS011;16219;42.864;23.360;2022-12-07T05:44:59;11.95;;;9.10;;
29168;SDS011;16219;42.864;23.360;2022-12-07T05:47:27;17.83;;;9.95;;
29168;SDS011;16219;42.864;23.360;2022-12-07T05:49:54;25.30;;;8.70;;
29168;SDS011;16219;42.864;23.360;2022-12-07T05:52:21;10.65;;;7.35;;
29168;SDS011;16219;42.864;23.360;2022-12-07T05:54:48;18.15;;;8.43;;
29168;SDS011;16219;42.864;23.360;2022-12-07T05:57:15;17.85;;;9.05;;
29168;SDS011;16219;42.864;23.360;2022-12-07T05:59:44;7.28;;;6.53;;
29168;SDS011;16219;42.864;23.360;2022-12-07T06:02:11;15.18;;;9.60;;
29168;SDS011;16219;42.864;23.360;2022-12-07T06:04:40;14.15;;;9.07;;
29168;SDS011;16219;42.864;23.360;2022-12-07T06:07:09;15.02;;;7.80;;
29168;SDS011;16219;42.864;23.360;2022-12-07T06:09:37;10.18;;;7.30;;
29168;SDS011;16219;42.864;23.360;2022-12-07T06:12:04;12.13;;;8.68;;
29168;SDS011;16219;42.864;23.360;2022-12-07T06:15:06;13.52;;;9.02;;
29168;SDS011;16219;42.864;23.360;2022-12-07T06:17:34;19.02;;;8.98;;
29168;SDS011;16219;42.864;23.360;2022-12-07T06:20:01;18.38;;;11.48;;
29168;SDS011;16219;42.864;23.360;2022-12-07T06:22:28;13.50;;;7.78;;
29168;SDS011;16219;42.864;23.360;2022-12-07T06:24:55;12.10;;;6.93;;
29168;SDS011;16219;42.864;23.360;2022-12-07T06:27:22;9.63;;;7.78;;
29168;SDS011;16219;42.864;23.360;2022-12-07T06:29:49;13.38;;;8.25;;
29168;SDS011;16219;42.864;23.360;2022-12-07T06:32:18;16.77;;;10.25;;
29168;SDS011;16219;42.864;23.360;2022-12-07T06:34:45;14.80;;;8.48;;
29168;SDS011;16219;42.864;23.360;2022-12-07T06:37:12;13.73;;;8.50;;
29168;SDS011;16219;42.864;23.360;2022-12-07T06:39:39;12.55;;;8.25;;
29168;SDS011;16219;42.864;23.360;2022-12-07T06:42:07;11.32;;;7.93;;
29168;SDS011;16219;42.864;23.360;2022-12-07T06:44:36;12.50;;;8.95;;
29168;SDS011;16219;42.864;23.360;2022-12-07T06:47:03;14.27;;;9.65;;
29168;SDS011;16219;42.864;23.360;2022-12-07T06:49:32;11.68;;;9.20;;
29168;SDS011;16219;42.864;23.360;2022-12-07T06:51:59;9.80;;;7.50;;
29168;SDS011;16219;42.864;23.360;2022-12-07T06:54:26;14.50;;;6.97;;
29168;SDS011;16219;42.864;23.360;2022-12-07T06:56:55;8.60;;;7.57;;
29168;SDS011;16219;42.864;23.360;2022-12-07T06:59:22;22.67;;;8.95;;
29168;SDS011;16219;42.864;23.360;2022-12-07T07:01:49;13.07;;;7.82;;
29168;SDS011;16219;42.864;23.360;2022-12-07T07:04:18;14.13;;;7.90;;
29168;SDS011;16219;42.864;23.360;2022-12-07T07:06:47;13.90;;;9.02;;
29168;SDS011;16219;42.864;23.360;2022-12-07T07:09:14;20.98;;;8.90;;
29168;SDS011;16219;42.864;23.360;2022-12-07T07:11:41;13.25;;;7.13;;
29168;SDS011;16219;42.864;23.360;2022-12-07T07:14:08;16.23;;;10.50;;
29168;SDS011;16219;42.864;23.360;2022-12-07T07:16:37;11.50;;;8.30;;
29168;SDS011;16219;42.864;23.360;2022-12-07T07:19:04;11.05;;;8.10;;
29168;SDS011;16219;42.864;23.360;2022-12-07T07:21:31;15.93;;;8.95;;
29168;SDS011;16219;42.864;23.360;2022-12-07T07:23:59;19.02;;;7.95;;
29168;SDS011;16219;42.864;23.360;2022-12-07T07:26:26;25.85;;;8.93;;
29168;SDS011;16219;42.864;23.360;2022-12-07T07:28:53;10.60;;;7.10;;
29168;SDS011;16219;42.864;23.360;2022-12-07T07:31:20;11.20;;;6.50;;
29168;SDS011;16219;42.864;23.360;2022-12-07T07:33:48;7.85;;;7.07;;
29168;SDS011;16219;42.864;23.360;2022-12-07T07:36:15;11.13;;;7.75;;
29168;SDS011;16219;42.864;23.360;2022-12-07T07:38:42;13.63;;;6.82;;
29168;SDS011;16219;42.864;23.360;2022-12-07T07:41:10;8.88;;;7.53;;
29168;SDS011;16219;42.864;23.360;2022-12-07T07:43:37;10.00;;;7.03;;
29168;SDS011;16219;42.864;23.360;2022-12-07T07:46:04;14.63;;;8.30;;
29168;SDS011;16219;42.864;23.360;2022-12-07T07:48:31;17.77;;;7.45;;
29168;SDS011;16219;42.864;23.360;2022-12-07T07:50:59;10.52;;;7.75;;
29168;SDS011;16219;42.864;23.360;2022-12-07T07:53:26;8.85;;;5.45;;
29168;SDS011;16219;42.864;23.360;2022-12-07T07:55:53;11.95;;;6.68;;
29168;SDS011;16219;42.864;23.360;2022-12-07T07:58:23;13.02;;;6.05;;
29168;SDS011;16219;42.864;23.360;2022-12-07T08:00:50;8.60;;;5.15;;
29168;SDS011;16219;42.864;23.360;2022-12-07T08:03:18;9.18;;;6.03;;
29168;SDS011;16219;42.864;23.360;2022-12-07T08:05:45;14.30;;;5.82;;
29168;SDS011;16219;42.864;23.360;2022-12-07T08:08:12;6.20;;;4.70;;
29168;SDS011;16219;42.864;23.360;2022-12-07T08:10:39;12.00;;;6.60;;
29168;SDS011;16219;42.864;23.360;2022-12-07T08:13:06;6.82;;;4.63;;
29168;SDS011;16219;42.864;23.360;2022-12-07T08:15:42;5.63;;;5.00;;
29168;SDS011;16219;42.864;23.360;2022-12-07T08:18:10;7.60;;;5.18;;
29168;SDS011;16219;42.864;23.360;2022-12-07T08:20:38;8.23;;;5.38;;
29168;SDS011;16219;42.864;23.360;2022-12-07T08:23:06;10.20;;;6.47;;
29168;SDS011;16219;42.864;23.360;2022-12-07T08:25:34;8.07;;;5.68;;
29168;SDS011;16219;42.864;23.360;2022-12-07T08:28:01;9.60;;;5.55;;
29168;SDS011;16219;42.864;23.360;2022-12-07T08:30:28;6.45;;;4.57;;
29168;SDS011;16219;42.864;23.360;2022-12-07T08:32:58;7.55;;;5.43;;
29168;SDS011;16219;42.864;23.360;2022-12-07T08:35:25;7.75;;;5.53;;
29168;SDS011;16219;42.864;23.360;2022-12-07T08:37:52;7.13;;;5.30;;
29168;SDS011;16219;42.864;23.360;2022-12-07T08:40:19;8.07;;;6.18;;
29168;SDS011;16219;42.864;23.360;2022-12-07T08:42:48;6.53;;;4.93;;
29168;SDS011;16219;42.864;23.360;2022-12-07T08:45:16;8.07;;;4.45;;
29168;SDS011;16219;42.864;23.360;2022-12-07T08:47:45;12.10;;;5.55;;
29168;SDS011;16219;42.864;23.360;2022-12-07T08:50:18;15.23;;;4.57;;
29168;SDS011;16219;42.864;23.360;2022-12-07T08:52:47;6.00;;;4.60;;
29168;SDS011;16219;42.864;23.360;2022-12-07T08:55:16;7.30;;;4.80;;
29168;SDS011;16219;42.864;23.360;2022-12-07T08:57:43;9.32;;;4.82;;
29168;SDS011;16219;42.864;23.360;2022-12-07T09:00:10;6.32;;;3.58;;
29168;SDS011;16219;42.864;23.360;2022-12-07T09:02:38;5.35;;;3.63;;
29168;SDS011;16219;42.864;23.360;2022-12-07T09:05:06;3.83;;;3.17;;
29168;SDS011;16219;42.864;23.360;2022-12-07T09:07:36;5.43;;;3.53;;
29168;SDS011;16219;42.864;23.360;2022-12-07T09:10:05;5.78;;;3.47;;
29168;SDS011;16219;42.864;23.360;2022-12-07T09:12:33;3.90;;;3.25;;
29168;SDS011;16219;42.864;23.360;2022-12-07T09:15:00;7.70;;;4.57;;
29168;SDS011;16219;42.864;23.360;2022-12-07T09:17:27;7.80;;;4.13;;
29168;SDS011;16219;42.864;23.360;2022-12-07T09:19:58;7.25;;;3.40;;
29168;SDS011;16219;42.864;23.360;2022-12-07T09:22:28;10.65;;;4.93;;
29168;SDS011;16219;42.864;23.360;2022-12-07T09:24:57;5.68;;;4.60;;
29168;SDS011;16219;42.864;23.360;2022-12-07T09:27:24;6.72;;;4.35;;
29168;SDS011;16219;42.864;23.360;2022-12-07T09:29:51;14.07;;;4.75;;
29168;SDS011;16219;42.864;23.360;2022-12-07T09:32:19;25.30;;;4.28;;
29168;SDS011;16219;42.864;23.360;2022-12-07T09:34:46;4.03;;;3.55;;
29168;SDS011;16219;42.864;23.360;2022-12-07T09:37:13;5.78;;;4.28;;
29168;SDS011;16219;42.864;23.360;2022-12-07T09:39:40;2.95;;;2.65;;
29168;SDS011;16219;42.864;23.360;2022-12-07T09:42:08;3.47;;;2.55;;
29168;SDS011;16219;42.864;23.360;2022-12-07T09:44:52;2.10;;;1.90;;
29168;SDS011;16219;42.864;23.360;2022-12-07T09:47:19;4.00;;;3.10;;
29168;SDS011;16219;42.864;23.360;2022-12-07T09:49:47;5.28;;;3.67;;
29168;SDS011;16219;42.864;23.360;2022-12-07T09:52:19;2.90;;;2.63;;
29168;SDS011;16219;42.864;23.360;2022-12-07T09:54:51;6.80;;;4.13;;
29168;SDS011;16219;42.864;23.360;2022-12-07T09:57:21;5.68;;;4.72;;
29168;SDS011;16219;42.864;23.360;2022-12-07T10:00:00;8.15;;;4.40;;
29168;SDS011;16219;42.864;23.360;2022-12-07T10:02:34;14.38;;;8.52;;
29168;SDS011;16219;42.864;23.360;2022-12-07T10:05:04;15.32;;;6.53;;
29168;SDS011;16219;42.864;23.360;2022-12-07T10:07:33;12.60;;;8.48;;
29168;SDS011;16219;42.864;23.360;2022-12-07T10:10:02;6.43;;;3.72;;
29168;SDS011;16219;42.864;23.360;2022-12-07T10:12:32;3.95;;;3.55;;
29168;SDS011;16219;42.864;23.360;2022-12-07T10:15:19;9.07;;;4.50;;
29168;SDS011;16219;42.864;23.360;2022-12-07T10:17:47;3.70;;;3.10;;
29168;SDS011;16219;42.864;23.360;2022-12-07T10:20:20;5.63;;;3.47;;
29168;SDS011;16219;42.864;23.360;2022-12-07T10:22:56;6.93;;;4.50;;
29168;SDS011;16219;42.864;23.360;2022-12-07T10:25:27;5.60;;;3.75;;
29168;SDS011;16219;42.864;23.360;2022-12-07T10:28:00;5.45;;;3.38;;
29168;SDS011;16219;42.864;23.360;2022-12-07T10:30:29;4.72;;;3.78;;
29168;SDS011;16219;42.864;23.360;2022-12-07T10:32:58;4.78;;;4.25;;
29168;SDS011;16219;42.864;23.360;2022-12-07T10:35:25;5.40;;;3.65;;
29168;SDS011;16219;42.864;23.360;2022-12-07T10:37:54;7.32;;;4.70;;
29168;SDS011;16219;42.864;23.360;2022-12-07T10:40:24;6.40;;;4.43;;
29168;SDS011;16219;42.864;23.360;2022-12-07T10:43:05;3.60;;;3.05;;
29168;SDS011;16219;42.864;23.360;2022-12-07T10:45:44;3.47;;;3.17;;
29168;SDS011;16219;42.864;23.360;2022-12-07T10:48:32;13.70;;;3.75;;
29168;SDS011;16219;42.864;23.360;2022-12-07T10:51:10;7.68;;;4.82;;
29168;SDS011;16219;42.864;23.360;2022-12-07T10:53:48;7.85;;;3.88;;
29168;SDS011;16219;42.864;23.360;2022-12-07T10:56:32;14.20;;;4.82;;
29168;SDS011;16219;42.864;23.360;2022-12-07T10:59:18;10.10;;;3.92;;
29168;SDS011;16219;42.864;23.360;2022-12-07T11:02:09;5.28;;;4.07;;
29168;SDS011;16219;42.864;23.360;2022-12-07T11:04:50;3.67;;;3.33;;
29168;SDS011;16219;42.864;23.360;2022-12-07T11:07:28;3.30;;;3.03;;
29168;SDS011;16219;42.864;23.360;2022-12-07T11:10:11;3.20;;;2.63;;
29168;SDS011;16219;42.864;23.360;2022-12-07T11:12:52;3.15;;;2.88;;
29168;SDS011;16219;42.864;23.360;2022-12-07T11:15:31;5.18;;;4.45;;
29168;SDS011;16219;42.864;23.360;2022-12-07T11:18:11;5.30;;;3.55;;
29168;SDS011;16219;42.864;23.360;2022-12-07T11:20:48;6.95;;;3.53;;
29168;SDS011;16219;42.864;23.360;2022-12-07T11:23:21;3.45;;;2.95;;
29168;SDS011;16219;42.864;23.360;2022-12-07T11:26:13;5.03;;;4.35;;
29168;SDS011;16219;42.864;23.360;2022-12-07T11:28:56;27.83;;;4.30;;
29168;SDS011;16219;42.864;23.360;2022-12-07T11:31:35;5.57;;;3.40;;
29168;SDS011;16219;42.864;23.360;2022-12-07T11:34:11;4.40;;;2.55;;
29168;SDS011;16219;42.864;23.360;2022-12-07T11:36:47;4.18;;;3.72;;
29168;SDS011;16219;42.864;23.360;2022-12-07T11:39:22;5.38;;;3.50;;
29168;SDS011;16219;42.864;23.360;2022-12-07T11:41:55;5.60;;;4.53;;
29168;SDS011;16219;42.864;23.360;2022-12-07T11:44:30;4.63;;;3.60;;
29168;SDS011;16219;42.864;23.360;2022-12-07T11:47:02;10.43;;;3.03;;
29168;SDS011;16219;42.864;23.360;2022-12-07T11:49:38;4.45;;;2.75;;
29168;SDS011;16219;42.864;23.360;2022-12-07T11:52:12;5.43;;;4.72;;
29168;SDS011;16219;42.864;23.360;2022-12-07T11:54:46;6.05;;;3.58;;
29168;SDS011;16219;42.864;23.360;2022-12-07T11:57:20;3.75;;;2.92;;
29168;SDS011;16219;42.864;23.360;2022-12-07T11:59:52;3.13;;;2.77;;
29168;SDS011;16219;42.864;23.360;2022-12-07T12:02:28;3.22;;;2.90;;
29168;SDS011;16219;42.864;23.360;2022-12-07T12:05:05;4.82;;;3.25;;
29168;SDS011;16219;42.864;23.360;2022-12-07T12:07:40;3.78;;;3.45;;
29168;SDS011;16219;42.864;23.360;2022-12-07T12:10:14;10.95;;;3.58;;
29168;SDS011;16219;42.864;23.360;2022-12-07T12:16:01;3.03;;;2.72;;
29168;SDS011;16219;42.864;23.360;2022-12-07T12:18:46;7.35;;;4.35;;
29168;SDS011;16219;42.864;23.360;2022-12-07T12:21:25;4.97;;;3.92;;
29168;SDS011;16219;42.864;23.360;2022-12-07T12:23:55;6.57;;;3.67;;
29168;SDS011;16219;42.864;23.360;2022-12-07T12:26:27;5.10;;;3.30;;
29168;SDS011;16219;42.864;23.360;2022-12-07T12:28:57;5.95;;;3.10;;
29168;SDS011;16219;42.864;23.360;2022-12-07T12:31:34;7.15;;;3.67;;
29168;SDS011;16219;42.864;23.360;2022-12-07T12:36:57;4.72;;;2.55;;
29168;SDS011;16219;42.864;23.360;2022-12-07T12:39:24;8.52;;;3.25;;
29168;SDS011;16219;42.864;23.360;2022-12-07T12:41:52;4.57;;;3.10;;
29168;SDS011;16219;42.864;23.360;2022-12-07T12:44:40;4.28;;;3.53;;
29168;SDS011;16219;42.864;23.360;2022-12-07T12:50:28;6.15;;;4.00;;
29168;SDS011;16219;42.864;23.360;2022-12-07T12:52:58;5.53;;;3.65;;
29168;SDS011;16219;42.864;23.360;2022-12-07T12:58:38;6.38;;;4.55;;
29168;SDS011;16219;42.864;23.360;2022-12-07T13:04:25;3.17;;;2.73;;
29168;SDS011;16219;42.864;23.360;2022-12-07T13:06:57;3.67;;;2.58;;
29168;SDS011;16219;42.864;23.360;2022-12-07T13:09:25;3.53;;;2.53;;
29168;SDS011;16219;42.864;23.360;2022-12-07T13:11:56;17.05;;;9.07;;
29168;SDS011;16219;42.864;23.360;2022-12-07T13:14:51;9.23;;;5.85;;
29168;SDS011;16219;42.864;23.360;2022-12-07T13:23:29;7.78;;;4.22;;
29168;SDS011;16219;42.864;23.360;2022-12-07T13:26:00;4.25;;;3.85;;
29168;SDS011;16219;42.864;23.360;2022-12-07T13:28:35;4.70;;;3.50;;
29168;SDS011;16219;42.864;23.360;2022-12-07T13:36:58;5.45;;;4.00;;
29168;SDS011;16219;42.864;23.360;2022-12-07T13:39:29;6.38;;;4.72;;
29168;SDS011;16219;42.864;23.360;2022-12-07T13:41:57;9.32;;;3.22;;
29168;SDS011;16219;42.864;23.360;2022-12-07T13:44:27;6.43;;;3.42;;
29168;SDS011;16219;42.864;23.360;2022-12-07T13:47:03;9.67;;;4.20;;
29168;SDS011;16219;42.864;23.360;2022-12-07T13:49:38;7.68;;;3.70;;
29168;SDS011;16219;42.864;23.360;2022-12-07T13:52:13;8.85;;;4.38;;
29168;SDS011;16219;42.864;23.360;2022-12-07T13:54:48;6.35;;;2.95;;
29168;SDS011;16219;42.864;23.360;2022-12-07T13:57:17;3.97;;;2.85;;
29168;SDS011;16219;42.864;23.360;2022-12-07T13:59:44;3.92;;;2.67;;
29168;SDS011;16219;42.864;23.360;2022-12-07T14:02:19;6.00;;;3.17;;
29168;SDS011;16219;42.864;23.360;2022-12-07T14:04:48;5.57;;;3.15;;
29168;SDS011;16219;42.864;23.360;2022-12-07T14:07:21;3.72;;;2.97;;
29168;SDS011;16219;42.864;23.360;2022-12-07T14:09:55;4.15;;;3.67;;
29168;SDS011;16219;42.864;23.360;2022-12-07T14:12:26;8.95;;;4.93;;
29168;SDS011;16219;42.864;23.360;2022-12-07T14:14:54;6.43;;;5.78;;
29168;SDS011;16219;42.864;23.360;2022-12-07T14:17:23;4.55;;;4.07;;
29168;SDS011;16219;42.864;23.360;2022-12-07T14:19:53;9.50;;;4.13;;
29168;SDS011;16219;42.864;23.360;2022-12-07T14:22:26;4.57;;;3.75;;
29168;SDS011;16219;42.864;23.360;2022-12-07T14:25:00;4.90;;;3.47;;
29168;SDS011;16219;42.864;23.360;2022-12-07T14:27:38;5.45;;;4.22;;
29168;SDS011;16219;42.864;23.360;2022-12-07T14:30:06;4.32;;;3.20;;
29168;SDS011;16219;42.864;23.360;2022-12-07T14:32:42;4.03;;;3.60;;
29168;SDS011;16219;42.864;23.360;2022-12-07T14:35:14;7.28;;;3.97;;
29168;SDS011;16219;42.864;23.360;2022-12-07T14:37:43;8.32;;;5.38;;
29168;SDS011;16219;42.864;23.360;2022-12-07T14:40:14;8.02;;;6.53;;
29168;SDS011;16219;42.864;23.360;2022-12-07T14:42:43;9.27;;;5.00;;
29168;SDS011;16219;42.864;23.360;2022-12-07T14:45:15;13.27;;;3.20;;
29168;SDS011;16219;42.864;23.360;2022-12-07T14:47:44;3.42;;;2.53;;
29168;SDS011;16219;42.864;23.360;2022-12-07T14:50:12;4.68;;;3.38;;
29168;SDS011;16219;42.864;23.360;2022-12-07T14:52:40;4.20;;;2.97;;
29168;SDS011;16219;42.864;23.360;2022-12-07T14:55:16;15.73;;;4.05;;
29168;SDS011;16219;42.864;23.360;2022-12-07T14:57:49;4.90;;;3.38;;
29168;SDS011;16219;42.864;23.360;2022-12-07T15:00:16;15.32;;;4.82;;
29168;SDS011;16219;42.864;23.360;2022-12-07T15:02:45;9.98;;;5.75;;
29168;SDS011;16219;42.864;23.360;2022-12-07T15:05:12;4.55;;;3.50;;
29168;SDS011;16219;42.864;23.360;2022-12-07T15:07:40;2.47;;;2.28;;
29168;SDS011;16219;42.864;23.360;2022-12-07T15:10:09;4.53;;;3.40;;
29168;SDS011;16219;42.864;23.360;2022-12-07T15:12:43;4.63;;;2.97;;
29168;SDS011;16219;42.864;23.360;2022-12-07T15:15:10;16.65;;;4.43;;
29168;SDS011;16219;42.864;23.360;2022-12-07T15:17:37;4.38;;;2.83;;
29168;SDS011;16219;42.864;23.360;2022-12-07T15:20:05;6.10;;;4.80;;